sensor_id;sensor_type;location;lat;lon;timestamp;P1;durP1;ratioP1;P2;durP2;ratioP2
1467;SDS011;727;48.892;9.544;2023-02-15T00:01:30;19.30;;;14.00;;
1467;SDS011;727;48.892;9.544;2023-02-15T00:03:58;20.85;;;14.45;;
1467;SDS011;727;48.892;9.544;2023-02-15T00:06:25;21.60;;;15.38;;
1467;SDS011;727;48.892;9.544;2023-02-15T00:08:52;18.45;;;14.23;;
1467;SDS011;727;48.892;9.544;2023-02-15T00:11:20;22.20;;;15.63;;
1467;SDS011;727;48.892;9.544;2023-02-15T00:14:04;17.08;;;12.68;;
1467;SDS011;727;48.892;9.544;2023-02-15T00:16:33;20.17;;;16.10;;
1467;SDS011;727;48.892;9.544;2023-02-15T00:19:00;20.63;;;14.88;;
1467;SDS011;727;48.892;9.544;2023-02-15T00:21:28;20.08;;;14.30;;
1467;SDS011;727;48.892;9.544;2023-02-15T00:23:55;18.70;;;14.57;;
1467;SDS011;727;48.892;9.544;2023-02-15T00:26:22;14.65;;;12.23;;
1467;SDS011;727;48.892;9.544;2023-02-15T00:28:49;19.98;;;14.90;;
1467;SDS011;727;48.892;9.544;2023-02-15T00:31:17;23.63;;;15.73;;
1467;SDS011;727;48.892;9.544;2023-02-15T00:33:45;22.80;;;14.95;;
1467;SDS011;727;48.892;9.544;2023-02-15T00:36:12;17.45;;;13.70;;
1467;SDS011;727;48.892;9.544;2023-02-15T00:38:39;24.38;;;14.77;;
1467;SDS011;727;48.892;9.544;2023-02-15T00:41:07;18.20;;;13.80;;
1467;SDS011;727;48.892;9.544;2023-02-15T00:43:34;20.67;;;14.40;;
1467;SDS011;727;48.892;9.544;2023-02-15T00:46:03;21.08;;;12.63;;
1467;SDS011;727;48.892;9.544;2023-02-15T00:48:31;18.77;;;14.05;;
1467;SDS011;727;48.892;9.544;2023-02-15T00:50:59;19.55;;;16.55;;
1467;SDS011;727;48.892;9.544;2023-02-15T00:53:27;24.10;;;15.95;;
1467;SDS011;727;48.892;9.544;2023-02-15T00:55:54;21.25;;;15.23;;
1467;SDS011;727;48.892;9.544;2023-02-15T00:58:21;22.55;;;14.27;;
1467;SDS011;727;48.892;9.544;2023-02-15T01:00:48;20.63;;;16.02;;
1467;SDS011;727;48.892;9.544;2023-02-15T01:03:16;20.75;;;13.68;;
1467;SDS011;727;48.892;9.544;2023-02-15T01:05:44;18.63;;;14.18;;
1467;SDS011;727;48.892;9.544;2023-02-15T01:08:13;21.55;;;14.30;;
1467;SDS011;727;48.892;9.544;2023-02-15T01:10:40;21.50;;;14.43;;
1467;SDS011;727;48.892;9.544;2023-02-15T01:13:08;21.27;;;13.90;;
1467;SDS011;727;48.892;9.544;2023-02-15T01:15:36;18.70;;;14.95;;
1467;SDS011;727;48.892;9.544;2023-02-15T01:18:02;21.02;;;15.63;;
1467;SDS011;727;48.892;9.544;2023-02-15T01:20:29;20.05;;;14.50;;
1467;SDS011;727;48.892;9.544;2023-02-15T01:22:59;18.08;;;15.13;;
1467;SDS011;727;48.892;9.544;2023-02-15T01:25:28;21.60;;;13.48;;
1467;SDS011;727;48.892;9.544;2023-02-15T01:27:55;20.20;;;14.93;;
1467;SDS011;727;48.892;9.544;2023-02-15T01:30:21;22.02;;;15.18;;
1467;SDS011;727;48.892;9.544;2023-02-15T01:32:48;22.40;;;14.75;;
1467;SDS011;727;48.892;9.544;2023-02-15T01:35:15;24.65;;;16.42;;
1467;SDS011;727;48.892;9.544;2023-02-15T01:37:42;27.08;;;15.20;;
1467;SDS011;727;48.892;9.544;2023-02-15T01:40:12;23.55;;;16.05;;
1467;SDS011;727;48.892;9.544;2023-02-15T01:42:42;16.38;;;13.30;;
1467;SDS011;727;48.892;9.544;2023-02-15T01:45:14;16.83;;;13.45;;
1467;SDS011;727;48.892;9.544;2023-02-15T01:47:46;18.95;;;14.38;;
1467;SDS011;727;48.892;9.544;2023-02-15T01:50:17;18.17;;;13.57;;
1467;SDS011;727;48.892;9.544;2023-02-15T01:52:51;16.85;;;13.02;;
1467;SDS011;727;48.892;9.544;2023-02-15T01:55:22;22.65;;;15.65;;
1467;SDS011;727;48.892;9.544;2023-02-15T01:58:03;20.45;;;14.43;;
1467;SDS011;727;48.892;9.544;2023-02-15T02:00:30;15.75;;;12.98;;
1467;SDS011;727;48.892;9.544;2023-02-15T02:02:57;19.63;;;13.23;;
1467;SDS011;727;48.892;9.544;2023-02-15T02:05:24;23.40;;;12.70;;
1467;SDS011;727;48.892;9.544;2023-02-15T02:07:52;16.50;;;11.30;;
1467;SDS011;727;48.892;9.544;2023-02-15T02:10:24;19.15;;;13.05;;
1467;SDS011;727;48.892;9.544;2023-02-15T02:12:51;20.00;;;13.13;;
1467;SDS011;727;48.892;9.544;2023-02-15T02:15:23;19.13;;;13.40;;
1467;SDS011;727;48.892;9.544;2023-02-15T02:18:03;19.08;;;13.95;;
1467;SDS011;727;48.892;9.544;2023-02-15T02:20:43;21.15;;;13.60;;
1467;SDS011;727;48.892;9.544;2023-02-15T02:23:31;18.70;;;12.85;;
1467;SDS011;727;48.892;9.544;2023-02-15T02:35:34;21.02;;;12.90;;
1467;SDS011;727;48.892;9.544;2023-02-15T02:38:07;19.55;;;12.95;;
1467;SDS011;727;48.892;9.544;2023-02-15T02:40:40;17.23;;;14.00;;
1467;SDS011;727;48.892;9.544;2023-02-15T02:43:15;20.73;;;15.63;;
1467;SDS011;727;48.892;9.544;2023-02-15T02:45:47;18.25;;;12.60;;
1467;SDS011;727;48.892;9.544;2023-02-15T02:48:22;18.55;;;14.10;;
1467;SDS011;727;48.892;9.544;2023-02-15T02:50:51;17.90;;;13.70;;
1467;SDS011;727;48.892;9.544;2023-02-15T02:53:18;17.63;;;12.35;;
1467;SDS011;727;48.892;9.544;2023-02-15T02:55:46;20.02;;;13.98;;
1467;SDS011;727;48.892;9.544;2023-02-15T02:58:16;32.78;;;13.98;;
1467;SDS011;727;48.892;9.544;2023-02-15T03:00:47;15.57;;;11.50;;
1467;SDS011;727;48.892;9.544;2023-02-15T03:03:18;19.85;;;13.35;;
1467;SDS011;727;48.892;9.544;2023-02-15T03:05:50;19.83;;;13.38;;
1467;SDS011;727;48.892;9.544;2023-02-15T03:08:21;19.83;;;15.00;;
1467;SDS011;727;48.892;9.544;2023-02-15T03:10:54;20.38;;;13.65;;
1467;SDS011;727;48.892;9.544;2023-02-15T03:13:23;20.77;;;13.80;;
1467;SDS011;727;48.892;9.544;2023-02-15T03:15:50;20.75;;;15.65;;
1467;SDS011;727;48.892;9.544;2023-02-15T03:18:38;20.80;;;13.98;;
1467;SDS011;727;48.892;9.544;2023-02-15T03:21:07;22.58;;;15.27;;
1467;SDS011;727;48.892;9.544;2023-02-15T03:23:46;21.48;;;14.00;;
1467;SDS011;727;48.892;9.544;2023-02-15T03:26:17;19.13;;;14.02;;
1467;SDS011;727;48.892;9.544;2023-02-15T03:28:46;16.77;;;13.55;;
1467;SDS011;727;48.892;9.544;2023-02-15T03:31:16;19.27;;;13.75;;
1467;SDS011;727;48.892;9.544;2023-02-15T03:33:50;22.35;;;12.65;;
1467;SDS011;727;48.892;9.544;2023-02-15T03:36:22;18.10;;;13.00;;
1467;SDS011;727;48.892;9.544;2023-02-15T03:38:57;21.45;;;13.30;;
1467;SDS011;727;48.892;9.544;2023-02-15T03:41:31;17.40;;;13.02;;
1467;SDS011;727;48.892;9.544;2023-02-15T03:44:02;22.48;;;13.70;;
1467;SDS011;727;48.892;9.544;2023-02-15T03:46:33;19.23;;;12.95;;
1467;SDS011;727;48.892;9.544;2023-02-15T03:49:08;17.40;;;12.38;;
1467;SDS011;727;48.892;9.544;2023-02-15T03:51:40;19.23;;;12.45;;
1467;SDS011;727;48.892;9.544;2023-02-15T03:54:11;22.00;;;13.32;;
1467;SDS011;727;48.892;9.544;2023-02-15T03:57:01;19.35;;;13.30;;
1467;SDS011;727;48.892;9.544;2023-02-15T03:59:46;22.58;;;14.95;;
1467;SDS011;727;48.892;9.544;2023-02-15T04:02:31;18.60;;;12.68;;
1467;SDS011;727;48.892;9.544;2023-02-15T04:05:05;18.92;;;14.18;;
1467;SDS011;727;48.892;9.544;2023-02-15T04:07:32;19.48;;;12.10;;
1467;SDS011;727;48.892;9.544;2023-02-15T04:09:59;20.02;;;14.20;;
1467;SDS011;727;48.892;9.544;2023-02-15T04:12:43;18.95;;;12.82;;
1467;SDS011;727;48.892;9.544;2023-02-15T04:15:11;20.17;;;14.15;;
1467;SDS011;727;48.892;9.544;2023-02-15T04:17:55;23.80;;;13.95;;
1467;SDS011;727;48.892;9.544;2023-02-15T04:20:23;19.52;;;13.20;;
1467;SDS011;727;48.892;9.544;2023-02-15T04:23:07;21.50;;;15.32;;
1467;SDS011;727;48.892;9.544;2023-02-15T04:25:51;19.85;;;15.15;;
1467;SDS011;727;48.892;9.544;2023-02-15T04:28:18;21.25;;;14.73;;
1467;SDS011;727;48.892;9.544;2023-02-15T04:30:46;20.30;;;15.30;;
1467;SDS011;727;48.892;9.544;2023-02-15T04:33:12;19.63;;;13.63;;
1467;SDS011;727;48.892;9.544;2023-02-15T04:35:42;24.90;;;13.55;;
1467;SDS011;727;48.892;9.544;2023-02-15T04:38:10;21.60;;;13.70;;
1467;SDS011;727;48.892;9.544;2023-02-15T04:40:37;19.83;;;13.95;;
1467;SDS011;727;48.892;9.544;2023-02-15T04:43:04;21.00;;;14.15;;
1467;SDS011;727;48.892;9.544;2023-02-15T04:45:30;17.88;;;13.52;;
1467;SDS011;727;48.892;9.544;2023-02-15T04:47:57;21.20;;;14.40;;
1467;SDS011;727;48.892;9.544;2023-02-15T04:50:24;17.23;;;13.30;;
1467;SDS011;727;48.892;9.544;2023-02-15T04:52:52;22.88;;;13.85;;
1467;SDS011;727;48.892;9.544;2023-02-15T04:55:19;20.60;;;14.52;;
1467;SDS011;727;48.892;9.544;2023-02-15T04:57:46;18.63;;;13.65;;
1467;SDS011;727;48.892;9.544;2023-02-15T05:00:13;19.48;;;13.40;;
1467;SDS011;727;48.892;9.544;2023-02-15T05:02:40;19.67;;;14.90;;
1467;SDS011;727;48.892;9.544;2023-02-15T05:05:07;20.83;;;15.55;;
1467;SDS011;727;48.892;9.544;2023-02-15T05:07:34;21.55;;;13.77;;
1467;SDS011;727;48.892;9.544;2023-02-15T05:10:02;21.38;;;14.20;;
1467;SDS011;727;48.892;9.544;2023-02-15T05:12:30;17.13;;;14.25;;
1467;SDS011;727;48.892;9.544;2023-02-15T05:14:56;18.00;;;14.02;;
1467;SDS011;727;48.892;9.544;2023-02-15T05:17:23;20.67;;;14.98;;
1467;SDS011;727;48.892;9.544;2023-02-15T05:19:50;21.58;;;16.35;;
1467;SDS011;727;48.892;9.544;2023-02-15T05:22:16;19.60;;;16.85;;
1467;SDS011;727;48.892;9.544;2023-02-15T05:24:43;27.35;;;17.60;;
1467;SDS011;727;48.892;9.544;2023-02-15T05:27:29;23.40;;;16.75;;
1467;SDS011;727;48.892;9.544;2023-02-15T05:30:13;23.83;;;16.42;;
1467;SDS011;727;48.892;9.544;2023-02-15T05:32:40;23.27;;;15.07;;
1467;SDS011;727;48.892;9.544;2023-02-15T05:35:06;22.00;;;13.68;;
1467;SDS011;727;48.892;9.544;2023-02-15T05:37:33;20.67;;;14.77;;
1467;SDS011;727;48.892;9.544;2023-02-15T05:40:00;26.73;;;15.40;;
1467;SDS011;727;48.892;9.544;2023-02-15T05:42:28;26.85;;;15.35;;
1467;SDS011;727;48.892;9.544;2023-02-15T05:44:55;29.08;;;18.70;;
1467;SDS011;727;48.892;9.544;2023-02-15T05:47:22;27.48;;;18.15;;
1467;SDS011;727;48.892;9.544;2023-02-15T05:49:49;35.22;;;20.63;;
1467;SDS011;727;48.892;9.544;2023-02-15T05:52:15;35.35;;;22.80;;
1467;SDS011;727;48.892;9.544;2023-02-15T05:54:42;39.55;;;26.92;;
1467;SDS011;727;48.892;9.544;2023-02-15T05:57:09;46.53;;;27.92;;
1467;SDS011;727;48.892;9.544;2023-02-15T05:59:37;36.30;;;25.85;;
1467;SDS011;727;48.892;9.544;2023-02-15T06:02:04;34.95;;;22.05;;
1467;SDS011;727;48.892;9.544;2023-02-15T06:04:31;40.10;;;25.35;;
1467;SDS011;727;48.892;9.544;2023-02-15T06:06:58;33.25;;;22.23;;
1467;SDS011;727;48.892;9.544;2023-02-15T06:09:25;32.50;;;23.25;;
1467;SDS011;727;48.892;9.544;2023-02-15T06:11:52;34.50;;;23.85;;
1467;SDS011;727;48.892;9.544;2023-02-15T06:14:18;32.05;;;21.30;;
1467;SDS011;727;48.892;9.544;2023-02-15T06:16:47;29.10;;;18.10;;
1467;SDS011;727;48.892;9.544;2023-02-15T06:19:14;20.70;;;16.58;;
1467;SDS011;727;48.892;9.544;2023-02-15T06:21:40;25.80;;;17.88;;
1467;SDS011;727;48.892;9.544;2023-02-15T06:24:07;22.45;;;17.50;;
1467;SDS011;727;48.892;9.544;2023-02-15T06:26:34;26.52;;;17.58;;
1467;SDS011;727;48.892;9.544;2023-02-15T06:29:01;26.73;;;19.13;;
1467;SDS011;727;48.892;9.544;2023-02-15T06:31:28;23.08;;;16.90;;
1467;SDS011;727;48.892;9.544;2023-02-15T06:33:56;24.05;;;15.80;;
1467;SDS011;727;48.892;9.544;2023-02-15T06:36:26;30.00;;;21.15;;
1467;SDS011;727;48.892;9.544;2023-02-15T06:38:53;27.60;;;20.35;;
1467;SDS011;727;48.892;9.544;2023-02-15T06:41:20;32.40;;;21.10;;
1467;SDS011;727;48.892;9.544;2023-02-15T06:43:47;28.80;;;18.23;;
1467;SDS011;727;48.892;9.544;2023-02-15T06:46:14;27.15;;;15.65;;
1467;SDS011;727;48.892;9.544;2023-02-15T06:48:40;22.58;;;15.65;;
1467;SDS011;727;48.892;9.544;2023-02-15T06:51:08;22.13;;;15.68;;
1467;SDS011;727;48.892;9.544;2023-02-15T06:53:35;25.33;;;18.02;;
1467;SDS011;727;48.892;9.544;2023-02-15T06:56:02;26.17;;;16.00;;
1467;SDS011;727;48.892;9.544;2023-02-15T06:58:31;33.47;;;16.70;;
1467;SDS011;727;48.892;9.544;2023-02-15T07:00:58;20.63;;;15.35;;
1467;SDS011;727;48.892;9.544;2023-02-15T07:03:25;28.95;;;16.55;;
1467;SDS011;727;48.892;9.544;2023-02-15T07:05:53;22.90;;;17.27;;
1467;SDS011;727;48.892;9.544;2023-02-15T07:08:22;23.27;;;16.25;;
1467;SDS011;727;48.892;9.544;2023-02-15T07:10:49;27.17;;;17.83;;
1467;SDS011;727;48.892;9.544;2023-02-15T07:13:16;27.02;;;17.13;;
1467;SDS011;727;48.892;9.544;2023-02-15T07:15:42;31.90;;;19.17;;
1467;SDS011;727;48.892;9.544;2023-02-15T07:18:09;32.35;;;22.67;;
1467;SDS011;727;48.892;9.544;2023-02-15T07:20:36;36.03;;;25.85;;
1467;SDS011;727;48.892;9.544;2023-02-15T07:23:04;42.35;;;27.83;;
1467;SDS011;727;48.892;9.544;2023-02-15T07:25:32;45.00;;;27.42;;
1467;SDS011;727;48.892;9.544;2023-02-15T07:27:59;37.72;;;24.70;;
1467;SDS011;727;48.892;9.544;2023-02-15T07:30:27;45.38;;;32.83;;
1467;SDS011;727;48.892;9.544;2023-02-15T07:32:54;34.15;;;25.92;;
1467;SDS011;727;48.892;9.544;2023-02-15T07:35:38;25.58;;;18.10;;
1467;SDS011;727;48.892;9.544;2023-02-15T07:38:12;33.47;;;18.38;;
1467;SDS011;727;48.892;9.544;2023-02-15T07:40:40;26.38;;;23.58;;
1467;SDS011;727;48.892;9.544;2023-02-15T07:43:07;21.27;;;16.55;;
1467;SDS011;727;48.892;9.544;2023-02-15T07:45:34;16.42;;;13.70;;
1467;SDS011;727;48.892;9.544;2023-02-15T07:48:01;21.48;;;15.80;;
1467;SDS011;727;48.892;9.544;2023-02-15T07:50:28;22.33;;;15.73;;
1467;SDS011;727;48.892;9.544;2023-02-15T07:52:56;18.48;;;13.98;;
1467;SDS011;727;48.892;9.544;2023-02-15T07:55:22;20.17;;;15.60;;
1467;SDS011;727;48.892;9.544;2023-02-15T07:57:51;21.00;;;18.00;;
1467;SDS011;727;48.892;9.544;2023-02-15T08:00:19;20.20;;;16.10;;
1467;SDS011;727;48.892;9.544;2023-02-15T08:02:49;21.85;;;17.27;;
1467;SDS011;727;48.892;9.544;2023-02-15T08:05:38;22.83;;;17.40;;
1467;SDS011;727;48.892;9.544;2023-02-15T08:08:05;26.77;;;20.38;;
1467;SDS011;727;48.892;9.544;2023-02-15T08:10:32;24.63;;;19.25;;
1467;SDS011;727;48.892;9.544;2023-02-15T08:13:33;22.88;;;18.13;;
1467;SDS011;727;48.892;9.544;2023-02-15T08:15:59;16.80;;;14.20;;
1467;SDS011;727;48.892;9.544;2023-02-15T08:18:26;19.10;;;14.50;;
1467;SDS011;727;48.892;9.544;2023-02-15T08:20:53;15.38;;;11.77;;
1467;SDS011;727;48.892;9.544;2023-02-15T08:23:19;20.83;;;18.60;;
1467;SDS011;727;48.892;9.544;2023-02-15T08:25:46;21.65;;;15.75;;
1467;SDS011;727;48.892;9.544;2023-02-15T08:28:13;17.52;;;13.95;;
1467;SDS011;727;48.892;9.544;2023-02-15T08:30:44;19.95;;;13.27;;
1467;SDS011;727;48.892;9.544;2023-02-15T08:33:10;15.52;;;12.95;;
1467;SDS011;727;48.892;9.544;2023-02-15T08:35:37;19.63;;;13.73;;
1467;SDS011;727;48.892;9.544;2023-02-15T08:38:04;16.25;;;12.13;;
1467;SDS011;727;48.892;9.544;2023-02-15T08:40:30;15.98;;;12.13;;
1467;SDS011;727;48.892;9.544;2023-02-15T08:42:57;17.90;;;13.93;;
1467;SDS011;727;48.892;9.544;2023-02-15T08:45:24;18.55;;;12.40;;
1467;SDS011;727;48.892;9.544;2023-02-15T08:47:52;16.23;;;12.77;;
1467;SDS011;727;48.892;9.544;2023-02-15T08:50:19;16.23;;;13.73;;
1467;SDS011;727;48.892;9.544;2023-02-15T08:52:45;17.90;;;13.27;;
1467;SDS011;727;48.892;9.544;2023-02-15T08:55:12;15.60;;;12.43;;
1467;SDS011;727;48.892;9.544;2023-02-15T08:57:40;19.27;;;14.10;;
1467;SDS011;727;48.892;9.544;2023-02-15T09:00:10;15.18;;;13.55;;
1467;SDS011;727;48.892;9.544;2023-02-15T09:02:38;15.18;;;12.48;;
1467;SDS011;727;48.892;9.544;2023-02-15T09:05:06;17.98;;;13.45;;
1467;SDS011;727;48.892;9.544;2023-02-15T09:07:34;15.88;;;12.68;;
1467;SDS011;727;48.892;9.544;2023-02-15T09:10:00;19.77;;;15.02;;
1467;SDS011;727;48.892;9.544;2023-02-15T09:12:27;17.55;;;14.02;;
1467;SDS011;727;48.892;9.544;2023-02-15T09:14:54;15.88;;;12.85;;
1467;SDS011;727;48.892;9.544;2023-02-15T09:17:20;16.23;;;13.60;;
1467;SDS011;727;48.892;9.544;2023-02-15T09:19:47;16.63;;;14.38;;
1467;SDS011;727;48.892;9.544;2023-02-15T09:22:15;17.65;;;14.50;;
1467;SDS011;727;48.892;9.544;2023-02-15T09:24:42;14.45;;;12.60;;
1467;SDS011;727;48.892;9.544;2023-02-15T09:27:08;16.80;;;14.98;;
1467;SDS011;727;48.892;9.544;2023-02-15T09:29:36;18.33;;;15.18;;
1467;SDS011;727;48.892;9.544;2023-02-15T09:32:03;18.00;;;15.35;;
1467;SDS011;727;48.892;9.544;2023-02-15T09:34:30;15.95;;;13.50;;
1467;SDS011;727;48.892;9.544;2023-02-15T09:36:57;18.00;;;15.70;;
1467;SDS011;727;48.892;9.544;2023-02-15T09:39:25;16.55;;;13.85;;
1467;SDS011;727;48.892;9.544;2023-02-15T09:41:58;25.38;;;17.92;;
1467;SDS011;727;48.892;9.544;2023-02-15T09:44:55;18.75;;;15.68;;
1467;SDS011;727;48.892;9.544;2023-02-15T09:47:43;17.83;;;14.37;;
1467;SDS011;727;48.892;9.544;2023-02-15T09:50:25;18.70;;;14.10;;
1467;SDS011;727;48.892;9.544;2023-02-15T09:53:02;16.83;;;14.40;;
1467;SDS011;727;48.892;9.544;2023-02-15T09:55:45;16.97;;;15.00;;
1467;SDS011;727;48.892;9.544;2023-02-15T09:58:22;17.80;;;14.67;;
1467;SDS011;727;48.892;9.544;2023-02-15T10:00:58;17.83;;;15.33;;
1467;SDS011;727;48.892;9.544;2023-02-15T10:03:38;17.30;;;13.83;;
1467;SDS011;727;48.892;9.544;2023-02-15T10:06:21;20.47;;;14.07;;
1467;SDS011;727;48.892;9.544;2023-02-15T10:09:09;18.07;;;16.17;;
1467;SDS011;727;48.892;9.544;2023-02-15T10:12:00;16.10;;;13.83;;
1467;SDS011;727;48.892;9.544;2023-02-15T10:17:38;20.13;;;15.00;;
1467;SDS011;727;48.892;9.544;2023-02-15T10:20:17;20.30;;;15.60;;
1467;SDS011;727;48.892;9.544;2023-02-15T10:22:57;17.97;;;15.37;;
1467;SDS011;727;48.892;9.544;2023-02-15T10:25:40;17.43;;;15.50;;
1467;SDS011;727;48.892;9.544;2023-02-15T10:28:15;20.03;;;17.80;;
1467;SDS011;727;48.892;9.544;2023-02-15T10:30:46;17.80;;;15.90;;
1467;SDS011;727;48.892;9.544;2023-02-15T10:33:20;18.53;;;16.63;;
1467;SDS011;727;48.892;9.544;2023-02-15T10:36:00;19.07;;;15.93;;
1467;SDS011;727;48.892;9.544;2023-02-15T10:38:38;28.33;;;20.43;;
1467;SDS011;727;48.892;9.544;2023-02-15T10:41:12;19.70;;;17.20;;
1467;SDS011;727;48.892;9.544;2023-02-15T10:43:52;18.53;;;16.53;;
1467;SDS011;727;48.892;9.544;2023-02-15T10:46:37;33.03;;;24.37;;
1467;SDS011;727;48.892;9.544;2023-02-15T10:49:38;21.73;;;18.00;;
1467;SDS011;727;48.892;9.544;2023-02-15T10:52:29;21.27;;;16.97;;
1467;SDS011;727;48.892;9.544;2023-02-15T10:55:07;20.93;;;17.30;;
1467;SDS011;727;48.892;9.544;2023-02-15T10:57:43;30.57;;;24.90;;
1467;SDS011;727;48.892;9.544;2023-02-15T11:00:18;27.73;;;18.90;;
1467;SDS011;727;48.892;9.544;2023-02-15T11:02:58;21.93;;;18.07;;
1467;SDS011;727;48.892;9.544;2023-02-15T11:05:39;23.23;;;16.30;;
1467;SDS011;727;48.892;9.544;2023-02-15T11:08:14;23.53;;;19.60;;
1467;SDS011;727;48.892;9.544;2023-02-15T11:10:42;22.07;;;17.87;;
1467;SDS011;727;48.892;9.544;2023-02-15T11:13:14;21.80;;;17.43;;
1467;SDS011;727;48.892;9.544;2023-02-15T11:15:44;20.13;;;17.23;;
1467;SDS011;727;48.892;9.544;2023-02-15T11:18:15;19.73;;;17.60;;
1467;SDS011;727;48.892;9.544;2023-02-15T11:20:49;20.43;;;18.33;;
1467;SDS011;727;48.892;9.544;2023-02-15T11:23:20;22.40;;;18.30;;
1467;SDS011;727;48.892;9.544;2023-02-15T11:25:52;19.20;;;16.40;;
1467;SDS011;727;48.892;9.544;2023-02-15T11:28:23;19.57;;;17.30;;
1467;SDS011;727;48.892;9.544;2023-02-15T11:30:57;21.27;;;17.53;;
1467;SDS011;727;48.892;9.544;2023-02-15T11:33:29;19.43;;;17.07;;
1467;SDS011;727;48.892;9.544;2023-02-15T11:36:01;20.70;;;18.50;;
1467;SDS011;727;48.892;9.544;2023-02-15T11:38:33;22.40;;;18.07;;
1467;SDS011;727;48.892;9.544;2023-02-15T11:41:05;19.00;;;17.10;;
1467;SDS011;727;48.892;9.544;2023-02-15T11:43:36;18.77;;;16.07;;
1467;SDS011;727;48.892;9.544;2023-02-15T11:46:08;19.67;;;16.93;;
1467;SDS011;727;48.892;9.544;2023-02-15T11:48:37;22.73;;;16.03;;
1467;SDS011;727;48.892;9.544;2023-02-15T11:51:04;20.50;;;16.00;;
1467;SDS011;727;48.892;9.544;2023-02-15T11:53:32;16.90;;;13.13;;
1467;SDS011;727;48.892;9.544;2023-02-15T11:56:01;21.90;;;14.03;;
1467;SDS011;727;48.892;9.544;2023-02-15T11:58:32;16.63;;;14.60;;
1467;SDS011;727;48.892;9.544;2023-02-15T12:01:08;16.70;;;14.80;;
1467;SDS011;727;48.892;9.544;2023-02-15T12:03:43;15.53;;;14.00;;
1467;SDS011;727;48.892;9.544;2023-02-15T12:06:16;15.07;;;13.50;;
1467;SDS011;727;48.892;9.544;2023-02-15T12:08:49;13.90;;;12.53;;
1467;SDS011;727;48.892;9.544;2023-02-15T12:11:22;12.67;;;11.37;;
1467;SDS011;727;48.892;9.544;2023-02-15T12:13:55;13.57;;;12.07;;
1467;SDS011;727;48.892;9.544;2023-02-15T12:16:24;15.07;;;12.80;;
1467;SDS011;727;48.892;9.544;2023-02-15T12:18:53;12.93;;;11.60;;
1467;SDS011;727;48.892;9.544;2023-02-15T12:21:26;14.87;;;11.93;;
1467;SDS011;727;48.892;9.544;2023-02-15T12:23:56;24.50;;;14.40;;
1467;SDS011;727;48.892;9.544;2023-02-15T12:26:27;14.77;;;13.17;;
1467;SDS011;727;48.892;9.544;2023-02-15T12:28:55;15.93;;;13.87;;
1467;SDS011;727;48.892;9.544;2023-02-15T12:31:28;16.47;;;13.83;;
1467;SDS011;727;48.892;9.544;2023-02-15T12:34:00;15.97;;;14.07;;
1467;SDS011;727;48.892;9.544;2023-02-15T12:36:31;14.27;;;12.80;;
1467;SDS011;727;48.892;9.544;2023-02-15T12:39:17;14.27;;;12.80;;
1467;SDS011;727;48.892;9.544;2023-02-15T12:41:57;15.87;;;14.13;;
1467;SDS011;727;48.892;9.544;2023-02-15T12:44:27;16.70;;;12.80;;
1467;SDS011;727;48.892;9.544;2023-02-15T12:46:57;18.37;;;12.70;;
1467;SDS011;727;48.892;9.544;2023-02-15T12:49:26;17.07;;;13.60;;
1467;SDS011;727;48.892;9.544;2023-02-15T12:51:54;14.30;;;12.30;;
1467;SDS011;727;48.892;9.544;2023-02-15T12:54:29;15.47;;;14.00;;
1467;SDS011;727;48.892;9.544;2023-02-15T12:57:01;13.70;;;12.13;;
1467;SDS011;727;48.892;9.544;2023-02-15T12:59:47;14.47;;;12.70;;
1467;SDS011;727;48.892;9.544;2023-02-15T13:02:18;14.47;;;12.93;;
1467;SDS011;727;48.892;9.544;2023-02-15T13:04:48;13.57;;;12.30;;
1467;SDS011;727;48.892;9.544;2023-02-15T13:07:23;18.70;;;13.30;;
1467;SDS011;727;48.892;9.544;2023-02-15T13:10:18;14.20;;;12.70;;
1467;SDS011;727;48.892;9.544;2023-02-15T13:12:50;14.20;;;12.90;;
1467;SDS011;727;48.892;9.544;2023-02-15T13:15:30;39.93;;;15.20;;
1467;SDS011;727;48.892;9.544;2023-02-15T13:18:03;15.90;;;13.30;;
1467;SDS011;727;48.892;9.544;2023-02-15T13:20:31;14.37;;;12.97;;
1467;SDS011;727;48.892;9.544;2023-02-15T13:23:06;17.30;;;14.27;;
1467;SDS011;727;48.892;9.544;2023-02-15T13:25:42;12.90;;;11.70;;
1467;SDS011;727;48.892;9.544;2023-02-15T13:28:15;14.57;;;13.03;;
1467;SDS011;727;48.892;9.544;2023-02-15T13:30:45;14.20;;;12.70;;
1467;SDS011;727;48.892;9.544;2023-02-15T13:33:16;9.13;;;8.30;;
1467;SDS011;727;48.892;9.544;2023-02-15T13:35:47;10.50;;;9.47;;
1467;SDS011;727;48.892;9.544;2023-02-15T13:38:26;9.40;;;6.87;;
1467;SDS011;727;48.892;9.544;2023-02-15T13:41:14;8.37;;;6.73;;
1467;SDS011;727;48.892;9.544;2023-02-15T13:43:46;8.30;;;6.63;;
1467;SDS011;727;48.892;9.544;2023-02-15T13:46:31;19.90;;;8.17;;
1467;SDS011;727;48.892;9.544;2023-02-15T13:49:12;9.57;;;7.20;;
1467;SDS011;727;48.892;9.544;2023-02-15T13:51:49;9.93;;;7.30;;
1467;SDS011;727;48.892;9.544;2023-02-15T13:54:28;8.90;;;7.27;;
1467;SDS011;727;48.892;9.544;2023-02-15T13:57:23;15.73;;;7.90;;
1467;SDS011;727;48.892;9.544;2023-02-15T14:00:10;11.03;;;8.80;;
1467;SDS011;727;48.892;9.544;2023-02-15T14:03:01;9.93;;;7.70;;
1467;SDS011;727;48.892;9.544;2023-02-15T14:06:15;7.50;;;6.70;;
1467;SDS011;727;48.892;9.544;2023-02-15T14:09:07;10.70;;;7.80;;
1467;SDS011;727;48.892;9.544;2023-02-15T14:11:44;9.77;;;8.77;;
1467;SDS011;727;48.892;9.544;2023-02-15T14:14:24;14.13;;;7.67;;
1467;SDS011;727;48.892;9.544;2023-02-15T14:17:07;13.87;;;8.20;;
1467;SDS011;727;48.892;9.544;2023-02-15T14:19:42;8.23;;;6.70;;
1467;SDS011;727;48.892;9.544;2023-02-15T14:22:17;21.57;;;9.33;;
1467;SDS011;727;48.892;9.544;2023-02-15T14:24:52;11.00;;;7.43;;
1467;SDS011;727;48.892;9.544;2023-02-15T14:27:27;12.20;;;9.63;;
1467;SDS011;727;48.892;9.544;2023-02-15T14:30:13;10.40;;;8.50;;
1467;SDS011;727;48.892;9.544;2023-02-15T14:32:45;11.00;;;7.90;;
1467;SDS011;727;48.892;9.544;2023-02-15T14:35:16;13.23;;;8.97;;
1467;SDS011;727;48.892;9.544;2023-02-15T14:37:47;15.87;;;9.83;;
1467;SDS011;727;48.892;9.544;2023-02-15T14:40:33;12.77;;;8.27;;
1467;SDS011;727;48.892;9.544;2023-02-15T14:43:24;14.93;;;9.23;;
1467;SDS011;727;48.892;9.544;2023-02-15T14:46:00;12.27;;;8.27;;
1467;SDS011;727;48.892;9.544;2023-02-15T14:48:35;11.53;;;8.70;;
1467;SDS011;727;48.892;9.544;2023-02-15T14:51:05;12.20;;;8.70;;
1467;SDS011;727;48.892;9.544;2023-02-15T14:53:37;13.50;;;8.73;;
1467;SDS011;727;48.892;9.544;2023-02-15T14:58:58;12.90;;;8.30;;
1467;SDS011;727;48.892;9.544;2023-02-15T15:01:41;12.97;;;9.20;;
1467;SDS011;727;48.892;9.544;2023-02-15T15:04:21;11.60;;;8.17;;
1467;SDS011;727;48.892;9.544;2023-02-15T15:07:00;14.17;;;9.10;;
1467;SDS011;727;48.892;9.544;2023-02-15T15:09:35;11.90;;;8.27;;
1467;SDS011;727;48.892;9.544;2023-02-15T15:12:14;15.63;;;8.30;;
1467;SDS011;727;48.892;9.544;2023-02-15T15:15:02;14.57;;;7.87;;
1467;SDS011;727;48.892;9.544;2023-02-15T15:23:33;12.77;;;8.53;;
1467;SDS011;727;48.892;9.544;2023-02-15T15:26:26;15.27;;;8.53;;
1467;SDS011;727;48.892;9.544;2023-02-15T15:28:56;9.30;;;7.10;;
1467;SDS011;727;48.892;9.544;2023-02-15T15:31:24;10.93;;;7.47;;
1467;SDS011;727;48.892;9.544;2023-02-15T15:37:22;11.67;;;6.77;;
1467;SDS011;727;48.892;9.544;2023-02-15T15:49:05;8.83;;;6.50;;
1467;SDS011;727;48.892;9.544;2023-02-15T15:51:38;10.27;;;7.60;;
1467;SDS011;727;48.892;9.544;2023-02-15T15:54:11;9.33;;;6.10;;
1467;SDS011;727;48.892;9.544;2023-02-15T15:56:41;27.07;;;10.80;;
1467;SDS011;727;48.892;9.544;2023-02-15T15:59:14;9.80;;;8.53;;
1467;SDS011;727;48.892;9.544;2023-02-15T16:01:45;11.13;;;8.37;;
1467;SDS011;727;48.892;9.544;2023-02-15T16:04:12;10.13;;;9.03;;
1467;SDS011;727;48.892;9.544;2023-02-15T16:06:49;9.35;;;8.02;;